DWD Radarbild

   
[Quelle: ADDS]
METAR
EDLP 220750Z 23004KT 180V330 8000 NSC 21/15 Q1014 =
TAF
EDLP 220500Z 2206/2306 24005KT CAVOK BECMG 2208/2210 30006KT BECMG 2217/2219 VRB03KT =
   
   

Meine WettercamWettercam aus Bielefeld Senne - Blickrichtung Süd-Ostjede Min. ein neues Bild

   
Moon phase
Phase:
Zunehmend

Mondphase:
75%

Alter:
10 Tage

Entfernung:
245,143 Km

Zeit:
10:13:53

Datum:
22-07-2018

   
<<  Jul 2018  >>
 Mo  Di  Mi  Do  Fr  Sa  So 
        1
  2  3  4  5  6  7  8
  9101112131415
16171819202122
23242526272829
3031